Time;durP1;ratioP1;P1;durP2;ratioP2;P2;SDS_P1;SDS_P2;PMS_P1;PMS_P2;Temp;Humidity;BMP_temperature;BMP_pressure;BME280_temperature;BME280_humidity;BME280_pressure;Samples;Min_cycle;Max_cycle;Signal;HPM_P1;HPM_P2
2022/09/07 00:02:04;;;;;;;;;;;;;;;-144.99;61.22;52191.28;4991116;28;20399;-80
2022/09/07 00:04:30;;;;;;;;;;;;;;;-144.99;61.50;52195.34;5000863;28;19936;-79
2022/09/07 00:06:57;;;;;;;;;;;;;;;-144.99;61.29;52217.78;4989046;28;19929;-79
2022/09/07 00:09:23;;;;;;;;;;;;;;;-144.99;61.52;52203.50;4989771;28;20304;-79
2022/09/07 00:11:49;;;;;;;;;;;;;;;-144.99;61.60;52207.59;4995527;28;19960;-79
2022/09/07 00:14:16;;;;;;;;;;;;;;;-144.99;61.92;52207.59;4991445;28;20000;-79
2022/09/07 00:16:44;;;;;;;;;;;;;;;-144.99;62.29;52185.16;4990853;28;20013;-75
2022/09/07 00:19:10;;;;;;;;;;;;;;;-144.99;62.44;52232.03;4993595;28;19929;-74
2022/09/07 00:21:37;;;;;;;;;;;;;;;-144.99;62.33;52187.19;4990163;28;19929;-80
2022/09/07 00:24:03;;;;;;;;;;;;;;;-144.99;62.13;52189.25;4992271;28;19937;-77
2022/09/07 00:26:30;;;;;;;;;;;;;;;-144.99;62.28;52217.78;4992111;28;19932;-79
2022/09/07 00:28:57;;;;;;;;;;;;;;;-144.99;62.49;52156.63;4984664;28;19938;-77
2022/09/07 00:31:24;;;;;;;;;;;;;;;-144.99;62.90;52195.34;4989717;28;19932;-79
2022/09/07 00:33:52;;;;;;;;;;;;;;;-144.99;62.44;52215.75;4995371;28;20032;-77
2022/09/07 00:36:19;;;;;;;;;;;;;;;-144.99;62.57;52236.13;4986979;28;19973;-77
2022/09/07 00:38:46;;;;;;;;;;;;;;;-144.99;62.74;52205.53;4989828;28;19926;-78
2022/09/07 00:41:13;;;;;;;;;;;;;;;-144.99;62.65;52191.28;4984761;28;19926;-75
2022/09/07 00:43:41;;;;;;;;;;;;;;;-144.99;62.60;52195.34;4991053;28;20458;-79
2022/09/07 00:46:12;;;;;;;;;;;;;;;-144.99;62.65;52199.44;4989331;28;19932;-76
2022/09/07 00:48:40;;;;;;;;;;;;;;;-144.99;62.99;52199.44;4990088;28;19926;-79
2022/09/07 00:51:10;;;;;;;;;;;;;;;-144.99;62.92;52215.75;4992339;28;19934;-78
2022/09/07 00:53:37;;;;;;;;;;;;;;;-144.99;62.57;52183.13;4991744;28;20012;-77
2022/09/07 00:56:05;;;;;;;;;;;;;;;-144.99;62.73;52215.75;4986250;28;19936;-78
2022/09/07 00:58:32;;;;;;;;;;;;;;;-144.99;62.96;52195.34;4985939;28;19925;-78
2022/09/07 01:00:58;;;;;;;;;;;;;;;-144.99;62.94;52203.50;4986400;28;19944;-81
2022/09/07 01:03:27;;;;;;;;;;;;;;;-144.99;62.57;52244.28;4981440;28;19980;-79
2022/09/07 01:05:57;;;;;;;;;;;;;;;-144.99;62.55;52183.13;4979110;28;19933;-78
2022/09/07 01:08:25;;;;;;;;;;;;;;;-144.99;62.62;52207.59;4984635;28;19925;-78
2022/09/07 01:10:51;;;;;;;;;;;;;;;-144.99;62.89;52195.34;4981470;28;19931;-80
2022/09/07 01:13:18;;;;;;;;;;;;;;;-144.99;63.03;52205.53;4987734;28;19942;-79
2022/09/07 01:15:50;;;;;;;;;;;;;;;-144.99;62.85;52203.50;4998372;28;20012;-80
2022/09/07 01:18:22;;;;;;;;;;;;;;;-144.99;63.00;52195.34;5003150;28;19934;-79
2022/09/07 01:20:53;;;;;;;;;;;;;;;-144.99;62.85;52195.34;4991011;28;19949;-79
2022/09/07 01:23:43;;;;;;;;;;;;;;;-144.99;62.92;52211.66;4997156;28;19978;-83
2022/09/07 01:26:29;;;;;;;;;;;;;;;-144.99;63.01;52199.44;5000893;28;20301;-84
2022/09/07 01:28:59;;;;;;;;;;;;;;;-144.99;63.13;52215.75;4987688;28;19977;-80
2022/09/07 01:31:32;;;;;;;;;;;;;;;-144.99;63.44;52203.50;4990951;28;19981;-81
2022/09/07 01:34:05;;;;;;;;;;;;;;;-144.99;63.40;52207.59;5001140;28;20377;-78
2022/09/07 01:36:33;;;;;;;;;;;;;;;-144.99;63.51;52221.84;4991387;28;19930;-83
2022/09/07 01:39:01;;;;;;;;;;;;;;;-144.99;63.13;52240.19;4993277;28;19934;-79
2022/09/07 01:41:31;;;;;;;;;;;;;;;-144.99;63.01;52223.88;4987659;28;19936;-80
2022/09/07 01:44:02;;;;;;;;;;;;;;;-144.99;63.14;52203.50;4994402;28;19930;-78
2022/09/07 01:46:30;;;;;;;;;;;;;;;-144.99;63.30;52207.59;4982823;28;19934;-79
2022/09/07 01:49:00;;;;;;;;;;;;;;;-144.99;63.58;52191.28;4982480;28;20304;-79
2022/09/07 01:51:29;;;;;;;;;;;;;;;-144.99;63.47;52225.94;4988027;28;20393;-77
2022/09/07 01:53:57;;;;;;;;;;;;;;;-144.99;63.77;52195.34;4995658;28;19941;-74
2022/09/07 01:56:27;;;;;;;;;;;;;;;-144.99;63.64;52199.44;4995467;28;19925;-78
2022/09/07 01:58:56;;;;;;;;;;;;;;;-144.99;63.39;52232.03;4990181;28;20459;-78
2022/09/07 02:01:25;;;;;;;;;;;;;;;-144.99;63.10;52199.44;4988707;28;19929;-77
2022/09/07 02:03:55;;;;;;;;;;;;;;;-144.99;63.57;52205.53;4992353;28;20075;-78
2022/09/07 02:06:24;;;;;;;;;;;;;;;-144.99;64.14;52219.81;4987265;28;19940;-78
2022/09/07 02:08:52;;;;;;;;;;;;;;;-144.99;63.78;52232.03;4989074;28;20411;-80
2022/09/07 02:11:21;;;;;;;;;;;;;;;-144.99;63.71;52174.97;4988029;28;20614;-80
2022/09/07 02:13:51;;;;;;;;;;;;;;;-144.99;63.55;52213.69;4988605;28;19969;-82
2022/09/07 02:16:19;;;;;;;;;;;;;;;-144.99;63.61;52203.50;4999850;28;20029;-83
2022/09/07 02:18:49;;;;;;;;;;;;;;;-144.99;63.51;52227.97;5002180;28;19936;-80
2022/09/07 02:21:18;;;;;;;;;;;;;;;-144.99;63.99;52244.28;4995385;28;19936;-83
2022/09/07 02:23:47;;;;;;;;;;;;;;;-144.99;64.16;52207.59;4991783;28;20024;-83
2022/09/07 02:26:15;;;;;;;;;;;;;;;-144.99;63.75;52211.66;5006579;28;20029;-83
2022/09/07 02:28:41;;;;;;;;;;;;;;;-144.99;63.58;52189.25;5014561;28;19920;-87
2022/09/07 02:31:08;;;;;;;;;;;;;;;-144.99;64.28;52244.28;4992618;28;19925;-80
2022/09/07 02:33:34;;;;;;;;;;;;;;;-144.99;64.04;52195.34;4985082;28;19925;-79
2022/09/07 02:36:03;;;;;;;;;;;;;;;-144.99;64.24;52199.44;4989716;28;19930;-81
2022/09/07 02:38:30;;;;;;;;;;;;;;;-144.99;64.71;52211.66;4988650;28;19956;-83
2022/09/07 02:40:58;;;;;;;;;;;;;;;-144.99;63.71;52187.19;5014820;23;20310;-70
2022/09/07 02:43:25;;;;;;;;;;;;;;;-144.99;63.81;52207.59;4987068;28;19932;-69
2022/09/07 02:45:58;;;;;;;;;;;;;;;-144.99;64.07;52211.66;4989606;28;19952;-71
2022/09/07 02:48:28;;;;;;;;;;;;;;;-144.99;64.37;52215.75;4986846;28;19933;-71
2022/09/07 02:51:01;;;;;;;;;;;;;;;-144.99;64.41;52219.81;4982909;28;19934;-71
2022/09/07 02:53:45;;;;;;;;;;;;;;;-144.99;64.44;52195.34;4978795;28;19929;-71
2022/09/07 02:56:18;;;;;;;;;;;;;;;-144.99;64.30;52199.44;4988339;28;19936;-71
2022/09/07 02:58:47;;;;;;;;;;;;;;;-144.99;64.43;52170.91;4995023;28;19930;-69
2022/09/07 03:01:18;;;;;;;;;;;;;;;-144.99;64.80;52203.50;4981865;28;20293;-69
2022/09/07 03:03:49;;;;;;;;;;;;;;;-144.99;64.80;52236.13;4974108;28;19936;-70
2022/09/07 03:06:25;;;;;;;;;;;;;;;-144.99;64.60;52203.50;4974200;28;20310;-68
2022/09/07 03:08:54;;;;;;;;;;;;;;;-144.99;64.80;52195.34;4991804;28;19945;-69
2022/09/07 03:11:21;;;;;;;;;;;;;;;-144.99;64.84;52232.03;4987079;28;19934;-69
2022/09/07 03:13:47;;;;;;;;;;;;;;;-144.99;64.58;52227.97;4988158;28;19944;-70
2022/09/07 03:16:14;;;;;;;;;;;;;;;-144.99;64.66;52203.50;4991559;28;20400;-69
2022/09/07 03:18:41;;;;;;;;;;;;;;;-144.99;64.83;52227.97;4988259;28;20307;-68
2022/09/07 03:21:07;;;;;;;;;;;;;;;-144.99;64.88;52219.81;4987260;28;20300;-70
2022/09/07 03:23:34;;;;;;;;;;;;;;;-144.99;64.87;52230.00;4990727;28;19941;-70
2022/09/07 03:26:02;;;;;;;;;;;;;;;-144.99;64.84;52199.44;4984131;28;19930;-69
2022/09/07 03:28:28;;;;;;;;;;;;;;;-144.99;64.91;52201.47;4991981;28;19936;-70
2022/09/07 03:30:55;;;;;;;;;;;;;;;-144.99;65.12;52211.66;4993619;28;19926;-70
2022/09/07 03:33:21;;;;;;;;;;;;;;;-144.99;65.14;52187.19;4987757;28;20235;-72
2022/09/07 03:35:57;;;;;;;;;;;;;;;-144.99;65.38;52199.44;4988483;28;20067;-72
2022/09/07 03:38:24;;;;;;;;;;;;;;;-144.99;64.94;52191.28;5002479;28;20462;-70
2022/09/07 03:40:56;;;;;;;;;;;;;;;-144.99;64.88;52191.28;4996774;28;20013;-73
2022/09/07 03:43:25;;;;;;;;;;;;;;;-144.99;65.03;52207.59;4991953;28;19926;-72
2022/09/07 03:45:56;;;;;;;;;;;;;;;-144.99;65.34;52207.59;4987234;28;19926;-70
2022/09/07 03:48:22;;;;;;;;;;;;;;;-144.99;64.94;52195.34;4994342;28;20008;-72
2022/09/07 03:50:54;;;;;;;;;;;;;;;-144.99;64.91;52199.44;4999844;28;20127;-71
2022/09/07 03:53:21;;;;;;;;;;;;;;;-144.99;64.82;52195.34;4990953;28;19933;-71
2022/09/07 03:55:55;;;;;;;;;;;;;;;-144.99;65.06;52203.50;4997202;28;19926;-69
2022/09/07 03:58:21;;;;;;;;;;;;;;;-144.99;65.02;52238.16;4997690;28;19959;-70
2022/09/07 04:00:49;;;;;;;;;;;;;;;-144.99;65.03;52207.59;4997672;28;19926;-70
2022/09/07 04:03:15;;;;;;;;;;;;;;;-144.99;65.25;52232.03;4991957;28;19940;-69
2022/09/07 04:05:41;;;;;;;;;;;;;;;-144.99;65.29;52232.03;4987040;28;20028;-68
2022/09/07 04:08:08;;;;;;;;;;;;;;;-144.99;65.23;52183.13;4997249;28;20589;-69
2022/09/07 04:10:36;;;;;;;;;;;;;;;-144.99;65.05;52227.97;4999416;28;20053;-70
2022/09/07 04:13:03;;;;;;;;;;;;;;;-144.99;65.05;52211.66;5005265;28;19992;-71
2022/09/07 04:15:29;;;;;;;;;;;;;;;-144.99;64.89;52199.44;5017427;28;19929;-70
2022/09/07 04:17:57;;;;;;;;;;;;;;;-144.99;64.80;52232.03;5018917;28;20062;-70
2022/09/07 04:20:24;;;;;;;;;;;;;;;-144.99;64.98;52254.47;5020033;28;19957;-70
2022/09/07 04:22:51;;;;;;;;;;;;;;;-144.99;65.36;52199.44;5020511;28;19914;-70
2022/09/07 04:25:17;;;;;;;;;;;;;;;-144.99;65.38;52215.75;5018794;28;20020;-70
2022/09/07 04:27:44;;;;;;;;;;;;;;;-144.99;64.99;52227.97;5022079;28;19928;-70
2022/09/07 04:30:11;;;;;;;;;;;;;;;-144.99;64.67;52213.69;5014653;28;19914;-70
2022/09/07 04:32:37;;;;;;;;;;;;;;;-144.99;65.03;52223.88;5005875;28;19967;-70
2022/09/07 04:35:06;;;;;;;;;;;;;;;-144.99;64.89;52195.34;5014321;28;19918;-70
2022/09/07 04:37:32;;;;;;;;;;;;;;;-144.99;64.68;52225.94;5010142;28;19989;-69
2022/09/07 04:39:58;;;;;;;;;;;;;;;-144.99;64.53;52209.63;5008701;28;19914;-72
2022/09/07 04:42:25;;;;;;;;;;;;;;;-144.99;64.00;52195.34;5015234;28;19929;-69
2022/09/07 04:44:51;;;;;;;;;;;;;;;-144.99;63.83;52199.44;5015392;28;19917;-70
2022/09/07 04:47:18;;;;;;;;;;;;;;;-144.99;63.58;52219.81;5013601;28;20153;-72
2022/09/07 04:49:44;;;;;;;;;;;;;;;-144.99;64.06;52191.28;5022134;28;19925;-73
2022/09/07 04:52:12;;;;;;;;;;;;;;;-144.99;64.30;52230.00;5020392;28;19929;-76
2022/09/07 04:54:38;;;;;;;;;;;;;;;-144.99;64.75;52213.69;5020870;28;19920;-75
2022/09/07 04:57:05;;;;;;;;;;;;;;;-144.99;64.89;52211.66;5024869;28;19933;-75
2022/09/07 04:59:31;;;;;;;;;;;;;;;-144.99;64.68;52211.66;5020540;28;19931;-75
2022/09/07 05:01:58;;;;;;;;;;;;;;;-144.99;64.40;52195.34;5016927;28;19945;-75
2022/09/07 05:04:24;;;;;;;;;;;;;;;-144.99;64.45;52203.50;4661009;28;10000289;-75
2022/09/07 05:06:52;;;;;;;;;;;;;;;-144.99;64.50;52183.13;4981372;28;19930;-74
2022/09/07 05:09:20;;;;;;;;;;;;;;;-144.99;64.57;52207.59;4984424;28;20166;-73
2022/09/07 05:11:47;;;;;;;;;;;;;;;-144.99;63.94;52221.84;4984228;28;20048;-75
2022/09/07 05:14:13;;;;;;;;;;;;;;;-144.99;63.49;52207.59;4991642;28;19962;-75
2022/09/07 05:16:40;;;;;;;;;;;;;;;-144.99;64.13;52203.50;4993832;28;20492;-78
2022/09/07 05:19:06;;;;;;;;;;;;;;;-144.99;64.38;52215.75;4996682;28;19961;-77
2022/09/07 05:21:33;;;;;;;;;;;;;;;-144.99;63.92;52205.53;4986637;28;19926;-76
2022/09/07 05:24:00;;;;;;;;;;;;;;;-144.99;63.44;52213.69;4978518;28;19989;-74
2022/09/07 05:26:29;;;;;;;;;;;;;;;-144.99;64.27;52211.66;4997332;28;20453;-77
2022/09/07 05:28:56;;;;;;;;;;;;;;;-144.99;65.11;52215.75;4991941;28;19939;-76
2022/09/07 05:31:23;;;;;;;;;;;;;;;-144.99;64.81;52223.88;4983409;28;19965;-74
2022/09/07 05:33:52;;;;;;;;;;;;;;;-144.99;64.38;52217.78;4987642;28;20293;-76
2022/09/07 05:36:19;;;;;;;;;;;;;;;-144.99;64.56;52187.19;4987552;28;20389;-75
2022/09/07 05:38:45;;;;;;;;;;;;;;;-144.99;64.67;52211.66;4988714;28;19926;-75
2022/09/07 05:41:12;;;;;;;;;;;;;;;-144.99;64.63;52207.59;4987247;28;19981;-75
2022/09/07 05:43:41;;;;;;;;;;;;;;;-144.99;64.66;52187.19;4989623;28;19934;-75
2022/09/07 05:46:07;;;;;;;;;;;;;;;-144.99;64.66;52191.28;4987350;28;19934;-76
2022/09/07 05:48:33;;;;;;;;;;;;;;;-144.99;64.41;52217.78;4988802;28;19940;-76
2022/09/07 05:51:00;;;;;;;;;;;;;;;-144.99;64.05;52183.13;4983757;28;19934;-76
2022/09/07 05:53:26;;;;;;;;;;;;;;;-144.99;63.91;52227.97;4986593;28;20024;-77
2022/09/07 05:55:53;;;;;;;;;;;;;;;-144.99;63.91;52203.50;4987906;28;19929;-76
2022/09/07 05:58:19;;;;;;;;;;;;;;;-144.99;63.62;52248.34;4985153;28;19930;-76
2022/09/07 06:00:47;;;;;;;;;;;;;;;-144.99;64.03;52179.06;4984497;28;20092;-75
2022/09/07 06:03:14;;;;;;;;;;;;;;;-144.99;64.34;52187.19;4976947;28;19930;-76
2022/09/07 06:05:40;;;;;;;;;;;;;;;-144.99;64.46;52215.75;4986850;28;20032;-74
2022/09/07 06:08:07;;;;;;;;;;;;;;;-144.99;64.23;52203.50;4987385;28;19936;-76
2022/09/07 06:10:34;;;;;;;;;;;;;;;-144.99;64.22;52195.34;4988024;28;19925;-76
2022/09/07 06:13:00;;;;;;;;;;;;;;;-144.99;64.54;52207.59;4997285;28;19930;-75
2022/09/07 06:15:27;;;;;;;;;;;;;;;-144.99;64.67;52191.28;5006641;28;19969;-74
2022/09/07 06:17:54;;;;;;;;;;;;;;;-144.99;64.30;52181.09;5007003;28;20001;-73
2022/09/07 06:20:21;;;;;;;;;;;;;;;-144.99;63.98;52203.50;5005287;28;19934;-72
2022/09/07 06:22:47;;;;;;;;;;;;;;;-144.99;63.84;52203.50;4995082;28;19969;-73
2022/09/07 06:25:13;;;;;;;;;;;;;;;-144.99;63.94;52227.97;4999501;28;19926;-73
2022/09/07 06:27:40;;;;;;;;;;;;;;;-144.99;63.67;52195.34;5009094;28;19975;-74
2022/09/07 06:30:07;;;;;;;;;;;;;;;-144.99;63.70;52215.75;5002985;28;19940;-74
2022/09/07 06:32:35;;;;;;;;;;;;;;;-144.99;63.56;52166.81;4996977;28;19931;-73
2022/09/07 06:35:03;;;;;;;;;;;;;;;-144.99;63.73;52172.94;4995707;28;19938;-73
2022/09/07 06:37:30;;;;;;;;;;;;;;;-144.99;63.82;52183.13;5004453;28;19930;-76
2022/09/07 06:39:56;;;;;;;;;;;;;;;-144.99;63.75;52191.28;4988941;28;19936;-76
2022/09/07 06:42:22;;;;;;;;;;;;;;;-144.99;64.07;52179.06;4985371;28;19933;-74
2022/09/07 06:44:49;;;;;;;;;;;;;;;-144.99;64.19;52170.91;4985618;28;20024;-73
2022/09/07 06:47:15;;;;;;;;;;;;;;;-144.99;64.78;52199.44;4986156;28;19932;-73
2022/09/07 06:49:42;;;;;;;;;;;;;;;-144.99;65.75;52191.28;4985360;28;20024;-72
2022/09/07 06:52:09;;;;;;;;;;;;;;;-144.99;66.10;52191.28;4982113;28;20518;-76
2022/09/07 06:54:36;;;;;;;;;;;;;;;-144.99;66.73;52187.19;4978718;28;19934;-75
2022/09/07 06:57:07;;;;;;;;;;;;;;;-144.99;68.15;52195.34;4982007;28;19929;-75
2022/09/07 06:59:33;;;;;;;;;;;;;;;-144.99;68.61;52170.91;4986776;28;19925;-75
2022/09/07 07:02:00;;;;;;;;;;;;;;;-144.99;69.91;52215.75;4983809;28;20337;-75
2022/09/07 07:04:26;;;;;;;;;;;;;;;-144.99;71.11;52195.34;4981504;28;19934;-76
2022/09/07 07:06:53;;;;;;;;;;;;;;;-144.99;71.50;52170.91;4982940;28;20087;-75
2022/09/07 07:09:20;;;;;;;;;;;;;;;-144.99;72.15;52158.66;4988720;28;20476;-77
2022/09/07 07:11:47;;;;;;;;;;;;;;;-144.99;74.03;52187.19;4994778;28;19929;-76
2022/09/07 07:14:14;;;;;;;;;;;;;;;-144.99;75.16;52170.91;4985681;28;19936;-77
2022/09/07 07:16:41;;;;;;;;;;;;;;;-144.99;76.09;52205.53;4986384;28;20053;-72
2022/09/07 07:19:07;;;;;;;;;;;;;;;-144.99;78.35;52183.13;4990293;28;20016;-74
2022/09/07 07:21:34;;;;;;;;;;;;;;;-144.99;78.17;52203.50;4987399;28;19960;-76
2022/09/07 07:24:01;;;;;;;;;;;;;;;-144.99;80.07;52209.63;4994890;28;20045;-75
2022/09/07 07:26:28;;;;;;;;;;;;;;;-144.99;80.92;52211.66;4987218;28;19926;-76
2022/09/07 07:28:56;;;;;;;;;;;;;;;-144.99;82.16;52205.53;4991481;28;19934;-76
2022/09/07 07:31:23;;;;;;;;;;;;;;;-144.99;84.91;52183.13;4990076;28;20380;-77
2022/09/07 07:33:51;;;;;;;;;;;;;;;-144.99;85.67;52201.47;4988984;28;19961;-77
2022/09/07 07:36:18;;;;;;;;;;;;;;;-144.99;86.06;52207.59;4976072;28;19938;-78
2022/09/07 07:38:46;;;;;;;;;;;;;;;-144.99;86.94;52242.22;4992602;28;19940;-75
2022/09/07 07:41:13;;;;;;;;;;;;;;;-144.99;88.58;52203.50;4993443;28;19937;-77
2022/09/07 07:43:41;;;;;;;;;;;;;;;-144.99;90.74;52195.34;4991373;28;20365;-78
2022/09/07 07:46:08;;;;;;;;;;;;;;;-144.99;91.28;52221.84;4987447;28;19992;-77
2022/09/07 07:48:36;;;;;;;;;;;;;;;-144.99;91.42;52187.19;4990865;28;19926;-77
2022/09/07 07:51:03;;;;;;;;;;;;;;;-144.99;92.48;52195.34;4986282;28;19988;-76
2022/09/07 07:53:32;;;;;;;;;;;;;;;-144.99;93.72;52191.28;4992505;28;20268;-77
2022/09/07 07:55:59;;;;;;;;;;;;;;;-144.99;95.09;52199.44;4989195;28;19965;-77
2022/09/07 07:58:26;;;;;;;;;;;;;;;-144.99;96.31;52183.13;4989343;28;20007;-75
2022/09/07 08:00:54;;;;;;;;;;;;;;;-144.99;96.53;52183.13;4994468;28;20041;-77
2022/09/07 08:03:20;;;;;;;;;;;;;;;-144.99;96.39;52191.28;4993015;28;20092;-79
2022/09/07 08:05:47;;;;;;;;;;;;;;;-144.99;97.06;52187.19;4984463;28;20337;-77
2022/09/07 08:08:14;;;;;;;;;;;;;;;-144.99;96.85;52219.81;4992131;28;19929;-80
2022/09/07 08:10:40;;;;;;;;;;;;;;;-144.99;96.63;52207.59;4992704;28;19926;-76
2022/09/07 08:13:07;;;;;;;;;;;;;;;-144.99;97.27;52170.91;4992054;28;19926;-76
2022/09/07 08:15:44;;;;;;;;;;;;;;;-144.99;96.87;52211.66;4990718;28;19936;-75
2022/09/07 08:18:12;;;;;;;;;;;;;;;-144.99;96.38;52207.59;4987253;28;19925;-75
2022/09/07 08:20:38;;;;;;;;;;;;;;;-144.99;96.89;52191.28;4990079;28;19932;-76
2022/09/07 08:23:06;;;;;;;;;;;;;;;-144.99;97.29;52217.78;4990695;28;19992;-75
2022/09/07 08:25:32;;;;;;;;;;;;;;;-144.99;97.00;52223.88;4989486;28;20602;-74
2022/09/07 08:27:59;;;;;;;;;;;;;;;-144.99;97.06;52203.50;4985418;28;19940;-75
2022/09/07 08:30:25;;;;;;;;;;;;;;;-144.99;96.63;52236.13;4994953;28;19926;-74
2022/09/07 08:32:51;;;;;;;;;;;;;;;-144.99;96.86;52211.66;4994273;28;20413;-75
2022/09/07 08:35:19;;;;;;;;;;;;;;;-144.99;96.70;52207.59;4975804;28;20077;-75
2022/09/07 08:37:46;;;;;;;;;;;;;;;-144.99;96.06;52211.66;4989400;28;19934;-76
2022/09/07 08:40:15;;;;;;;;;;;;;;;-144.99;96.01;52170.91;5011055;23;20012;-71
2022/09/07 08:42:50;;;;;;;;;;;;;;;-144.99;96.12;52244.28;5021620;28;20154;-74
2022/09/07 08:45:28;;;;;;;;;;;;;;;-144.99;96.71;52219.81;5017851;28;19985;-74
2022/09/07 08:47:55;;;;;;;;;;;;;;;-144.99;96.83;52183.13;5022157;28;19953;-74
2022/09/07 08:50:27;;;;;;;;;;;;;;;-144.99;97.43;52219.81;5015591;28;20425;-74
2022/09/07 08:52:55;;;;;;;;;;;;;;;-144.99;97.65;52187.19;5024020;28;19933;-74
2022/09/07 08:55:26;;;;;;;;;;;;;;;-144.99;97.69;52215.75;5026791;28;20091;-74
2022/09/07 08:57:55;;;;;;;;;;;;;;;-144.99;97.67;52195.34;5026087;28;19913;-75
2022/09/07 09:00:22;;;;;;;;;;;;;;;-144.99;97.38;52217.78;5018825;28;19940;-74
2022/09/07 09:02:48;;;;;;;;;;;;;;;-144.99;98.09;52183.13;5020015;28;19941;-72
2022/09/07 09:05:20;;;;;;;;;;;;;;;-144.99;98.13;52189.25;5018962;28;19935;-72
2022/09/07 09:07:53;;;;;;;;;;;;;;;-144.99;97.99;52230.00;5021845;28;19929;-74
2022/09/07 09:10:26;;;;;;;;;;;;;;;-144.99;97.77;52195.34;5013130;28;19936;-73
2022/09/07 09:12:58;;;;;;;;;;;;;;;-144.99;98.94;52199.44;4997922;28;20393;-70
2022/09/07 09:15:29;;;;;;;;;;;;;;;-144.99;98.86;52203.50;5002387;28;20043;-72
2022/09/07 09:18:01;;;;;;;;;;;;;;;-144.99;99.20;52215.75;5003898;28;19969;-72
2022/09/07 09:20:31;;;;;;;;;;;;;;;-144.99;99.08;52195.34;4998056;28;19936;-73
2022/09/07 09:23:01;;;;;;;;;;;;;;;-144.99;98.89;52223.88;4991690;28;19936;-73
2022/09/07 09:25:31;;;;;;;;;;;;;;;-144.99;98.86;52195.34;4997465;28;19929;-73
2022/09/07 09:27:58;;;;;;;;;;;;;;;-144.99;97.71;52170.91;4994454;28;19984;-73
2022/09/07 09:30:25;;;;;;;;;;;;;;;-144.99;97.71;52195.34;5001698;28;19925;-72
2022/09/07 09:32:52;;;;;;;;;;;;;;;-144.99;96.41;52146.44;4995215;28;19929;-73
2022/09/07 09:35:22;;;;;;;;;;;;;;;-144.99;96.08;52170.91;4994842;28;20397;-73
2022/09/07 09:37:48;;;;;;;;;;;;;;;-144.99;94.92;52160.72;5003868;28;19941;-73
2022/09/07 09:40:21;;;;;;;;;;;;;;;-144.99;93.49;52179.06;5002220;28;20380;-72
2022/09/07 09:42:47;;;;;;;;;;;;;;;-144.99;91.63;52152.56;4993907;28;19930;-73
2022/09/07 09:45:19;;;;;;;;;;;;;;;-144.99;90.31;52117.91;4997793;28;19965;-74
2022/09/07 09:47:48;;;;;;;;;;;;;;;-144.99;87.63;52097.53;5004519;28;20426;-73
2022/09/07 09:50:17;;;;;;;;;;;;;;;-144.99;82.04;52126.06;5001006;28;19945;-72
2022/09/07 09:52:45;;;;;;;;;;;;;;;-144.99;80.06;52064.91;4994583;28;19929;-74
2022/09/07 09:55:16;;;;;;;;;;;;;;;-144.99;77.65;52121.97;5001414;28;19925;-73
2022/09/07 09:57:48;;;;;;;;;;;;;;;-144.99;75.39;52130.13;4996802;28;19930;-74
2022/09/07 10:00:15;;;;;;;;;;;;;;;-144.99;74.90;52077.16;5002113;28;20329;-71
2022/09/07 10:02:42;;;;;;;;;;;;;;;-144.99;71.98;52075.09;4994389;28;20049;-71
2022/09/07 10:05:19;;;;;;;;;;;;;;;-144.99;70.97;52069.00;4997746;28;19930;-71
2022/09/07 10:07:50;;;;;;;;;;;;;;;-144.99;67.52;52069.00;4997157;28;19930;-74
2022/09/07 10:10:17;;;;;;;;;;;;;;;-144.99;65.95;52077.16;5003827;28;19933;-75
2022/09/07 10:12:44;;;;;;;;;;;;;;;-144.99;64.50;52052.69;4997901;28;19930;-75
2022/09/07 10:15:25;;;;;;;;;;;;;;;-144.99;60.01;52028.22;5000940;28;19934;-74
2022/09/07 10:17:51;;;;;;;;;;;;;;;-144.99;57.71;52003.78;5005123;28;20592;-76
2022/09/07 10:20:32;;;;;;;;;;;;;;;-144.99;58.07;51995.63;5001429;28;19989;-76
2022/09/07 10:22:59;;;;;;;;;;;;;;;-144.99;56.74;52044.53;4999287;28;20416;-75
2022/09/07 10:25:27;;;;;;;;;;;;;;;-144.99;56.12;52007.84;5002296;28;20019;-72
2022/09/07 10:28:00;;;;;;;;;;;;;;;-144.99;55.12;51995.63;5002221;28;19930;-74
2022/09/07 10:30:29;;;;;;;;;;;;;;;-144.99;54.50;51979.31;4996467;28;20405;-76
2022/09/07 10:33:00;;;;;;;;;;;;;;;-144.99;53.35;51969.13;4995380;28;19934;-76
2022/09/07 10:35:28;;;;;;;;;;;;;;;-144.99;52.70;51989.50;4993203;28;20449;-73
2022/09/07 10:37:59;;;;;;;;;;;;;;;-144.99;53.22;52048.63;4997512;28;19929;-71
2022/09/07 10:40:30;;;;;;;;;;;;;;;-144.99;54.81;52052.69;5001961;28;19936;-72
2022/09/07 10:43:01;;;;;;;;;;;;;;;-144.99;56.44;52032.31;4999755;28;20028;-75
2022/09/07 10:45:35;;;;;;;;;;;;;;;-144.99;57.08;52044.53;4987371;28;20139;-75
2022/09/07 10:48:06;;;;;;;;;;;;;;;-144.99;58.26;52056.78;4995733;28;19941;-75
2022/09/07 10:50:38;;;;;;;;;;;;;;;-144.99;58.79;52036.38;4996921;28;20309;-75
2022/09/07 10:53:17;;;;;;;;;;;;;;;-144.99;60.33;52032.31;4986834;28;19930;-76
2022/09/07 10:55:49;;;;;;;;;;;;;;;-144.99;59.81;52016.00;5005599;28;19945;-77
2022/09/07 10:58:23;;;;;;;;;;;;;;;-144.99;58.08;52020.09;5005063;28;19930;-75
2022/09/07 11:01:02;;;;;;;;;;;;;;;-144.99;57.12;52009.91;4991778;28;20400;-73
2022/09/07 11:03:37;;;;;;;;;;;;;;;-144.99;55.13;51979.31;4998164;28;19929;-75
2022/09/07 11:06:10;;;;;;;;;;;;;;;-144.99;54.67;51987.47;4990375;28;19926;-74
2022/09/07 11:08:44;;;;;;;;;;;;;;;-144.99;54.36;51956.91;4997165;28;19929;-74
2022/09/07 11:11:15;;;;;;;;;;;;;;;-144.99;53.33;51991.56;5002500;28;19934;-76
2022/09/07 11:13:43;;;;;;;;;;;;;;;-144.99;53.67;52028.22;5000242;28;19968;-76
2022/09/07 11:16:13;;;;;;;;;;;;;;;-144.99;53.24;51995.63;4989652;28;19936;-75
2022/09/07 11:18:41;;;;;;;;;;;;;;;-144.99;52.11;51983.41;4989276;28;20316;-73
2022/09/07 11:21:12;;;;;;;;;;;;;;;-144.99;51.25;51971.16;5000050;28;19952;-75
2022/09/07 11:23:42;;;;;;;;;;;;;;;-144.99;51.03;51958.94;5000505;28;19936;-75
2022/09/07 11:26:12;;;;;;;;;;;;;;;-144.99;50.81;51967.09;4999242;28;20182;-73
2022/09/07 11:28:45;;;;;;;;;;;;;;;-144.99;50.83;51940.59;4988401;28;19926;-75
2022/09/07 11:31:17;;;;;;;;;;;;;;;-144.99;50.04;51956.91;4998892;28;19933;-75
2022/09/07 11:33:50;;;;;;;;;;;;;;;-144.99;50.78;51963.03;5001636;28;20349;-76
2022/09/07 11:36:19;;;;;;;;;;;;;;;-144.99;50.86;52028.22;4993597;28;19929;-77
2022/09/07 11:38:50;;;;;;;;;;;;;;;-144.99;51.45;52011.94;4997132;28;20462;-76
2022/09/07 11:41:22;;;;;;;;;;;;;;;-144.99;51.65;51987.47;5001984;28;19934;-75
2022/09/07 11:43:51;;;;;;;;;;;;;;;-144.99;51.53;51995.63;5000928;28;19929;-74
2022/09/07 11:46:21;;;;;;;;;;;;;;;-144.99;50.60;51995.63;4990577;28;19937;-78
2022/09/07 11:48:51;;;;;;;;;;;;;;;-144.99;51.23;51934.50;4987618;28;19930;-75
2022/09/07 11:51:21;;;;;;;;;;;;;;;-144.99;50.34;51910.03;4995950;28;19929;-75
2022/09/07 11:53:51;;;;;;;;;;;;;;;-144.99;48.93;51877.44;5001121;28;20174;-75
2022/09/07 11:56:20;;;;;;;;;;;;;;;-144.99;47.50;51857.03;4993890;28;19930;-76
2022/09/07 11:58:54;;;;;;;;;;;;;;;-144.99;45.92;51836.66;4996596;28;20422;-75
2022/09/07 12:01:29;;;;;;;;;;;;;;;-144.99;43.50;51848.91;5005368;28;19940;-75
2022/09/07 12:04:02;;;;;;;;;;;;;;;-144.99;43.50;51844.81;5005365;28;19930;-76
2022/09/07 12:06:42;;;;;;;;;;;;;;;-144.99;43.06;51795.91;5000366;28;20048;-75
2022/09/07 12:09:16;;;;;;;;;;;;;;;-144.99;42.77;51799.97;4992374;28;19933;-77
2022/09/07 12:11:57;;;;;;;;;;;;;;;-144.99;42.63;51812.22;5003292;28;20420;-74
2022/09/07 12:14:32;;;;;;;;;;;;;;;-144.99;41.73;51828.50;5005672;28;19929;-78
2022/09/07 12:17:15;;;;;;;;;;;;;;;-144.99;41.41;51767.38;4997895;28;19941;-76
2022/09/07 12:19:42;;;;;;;;;;;;;;;-144.99;41.54;51816.28;4991320;28;19949;-77
2022/09/07 12:22:18;;;;;;;;;;;;;;;-144.99;41.36;51791.84;4990963;28;20225;-77
2022/09/07 12:24:45;;;;;;;;;;;;;;;-144.99;41.38;51857.03;5005456;28;19960;-75
2022/09/07 12:27:26;;;;;;;;;;;;;;;-144.99;41.14;51881.50;5003675;28;19944;-76
2022/09/07 12:30:08;;;;;;;;;;;;;;;-144.99;41.05;51816.28;4991356;28;19941;-76
2022/09/07 12:32:53;;;;;;;;;;;;;;;-144.99;40.81;51857.03;5000487;28;19929;-78
2022/09/07 12:38:31;;;;;;;;;;;;;;;-144.99;41.13;51848.91;5105882;27;20324;-73